Airfield :
LOGIN :

Register | Disclaimer

   EN    FR    IT 

 










Legend :    VFR   Marginal VFR   IFR   Intensive IFR   Very Intensive IFR
Visi :
Ceiling :
>= 8 km
>= 3000ft
5 to 8 km
1000 to 3000 ft
1500m to 5 km
500 to 1000 ft
800 to 1500m
200 to 500 ft
< 800m
< 200 ft
Symbols :   Thunderstorms  Fog  Heavy snow  Heavy precipitations  Wind > 20 kt
SIGMETs :     Misc.  Thunderstorms  Icing  Turbulence  Mountain Waves  Volcanic Ashes







- Airport Elevation : 74 ft
- IATA code : MRS
- Download approach charts


LFML - Marseille / Marignane

CURRENT METAR :
  • 240100Z AUTO 34005KT CAVOK 20/10 Q1016 NOSIG

EXPIRED METARs :
  • 240030Z AUTO 34006KT CAVOK 21/10 Q1016 NOSIG
  • 240000Z AUTO 35004KT 300V030 CAVOK 22/09 Q1016 NOSIG
  • 232330Z AUTO 31007KT CAVOK 21/09 Q1016 NOSIG
  • 232300Z AUTO 30008KT CAVOK 21/09 Q1017 NOSIG
  • 232230Z AUTO 30008KT CAVOK 21/09 Q1017 NOSIG
  • 232200Z AUTO 30008KT CAVOK 22/10 Q1017 NOSIG

TAF TAF LFML
Valid from the 23 at 21:00 until the 25 at 03:00 UTC


232000Z 2321/2503 30007KT CAVOK
BECMG 2400/2402 VRB03KT
BECMG 2408/2410 27010KT
TEMPO 2411/2415 VRB05G15KT FEW045CB
TEMPO 2416/2419 23010KT
BECMG 2421/2423 34015G25KT TX29/2414Z TN19/2404Z
ATIS : +33 4 42 31 15 15
No reported NOTAMs for that airfield.



MET'MAP, your aeronautical weather chart ! - Copyright ORBIFLY December 2007 - Disclaimer

ORBIFLY MET'MAP TEAM :

Programming & Development : Alexandra Zaïnal
Concept & Development : Baudouin d'Aumeries
Co-Development & Prog : Marc-Olivier Méhu
Technical & hardware support : Manuel Goepfert

Contact : metmap@orbifly.com




SOURCES & CREDITS :

   NOAA